This is the latest recevied weather packets stored in our database for station/object ED2YAA-3. If no packets are shown the sender has not sent any weather packets the latest 1 day(s).
| Time | Temp. | Humidity | Pressure | Rain* | Wind** | Luminosity | Snow |
|---|---|---|---|---|---|---|---|
| 1778081720 | 15° C | 75% | 993.8 hPa | 0 mm | - | - | - |
| 1778075093 | 16.11° C | 69% | 994.4 hPa | 0 mm | - | - | - |
| 1778074517 | 16.67° C | 67% | 994.3 hPa | 0 mm | - | - | - |
| 1778067893 | 17.22° C | 64% | 993.9 hPa | 0 mm | - | - | - |
| 1778067317 | 16.67° C | 63% | 993.9 hPa | 0 mm | - | - | - |
| 1778064293 | 19.44° C | 56% | 993.6 hPa | 0 mm | - | - | - |
| 1778063717 | 19.44° C | 58% | 993.6 hPa | 0 mm | - | - | - |
| 1778060116 | 17.78° C | 63% | 993.7 hPa | 0 mm | - | - | - |
| 1778057094 | 20° C | 64% | 993.6 hPa | 0 mm | - | - | - |
| 1778056518 | 20° C | 64% | 993.6 hPa | 0 mm | - | - | - |
| 1778052916 | 15.56° C | 77% | 993.7 hPa | 0 mm | - | - | - |
| 1778051001 | 12.22° C | 84% | 993.7 hPa | 0 mm | - | - | - |
| 1778043801 | 9.44° C | 87% | 993.2 hPa | 0 mm | - | - | - |
| 1778042117 | 10° C | 87% | 993.1 hPa | 0 mm | - | - | - |
| 1778040201 | 10° C | 87% | 993.2 hPa | 0 mm | - | - | - |
| 1778038516 | 9.44° C | 87% | 993.3 hPa | 0 mm | - | - | - |
| 1778036599 | 10° C | 87% | 993.3 hPa | 0 mm | - | - | - |
| 1778034916 | 10° C | 86% | 993 hPa | 0 mm | - | - | - |
| 1778033001 | 10.56° C | 86% | 993.5 hPa | 0 mm | - | - | - |
| 1778031317 | 10.56° C | 86% | 993.6 hPa | 0 mm | - | - | - |
| 1778029400 | 10.56° C | 86% | 993.6 hPa | 0 mm | - | - | - |
| 1778027715 | 10.56° C | 86% | 994 hPa | 0 mm | - | - | - |
| 1778017419 | 10.56° C | 85% | 994.3 hPa | 0 mm | - | - | - |
| 1778013316 | 11.67° C | 83% | 994.4 hPa | 0 mm | - | - | - |
| 1778006116 | 13.89° C | 77% | 993.6 hPa | 0 mm | - | - | - |
* Rain latest hour (hover to see other rain measurements)
** Current wind speed in m/s (hover to see current wind gust speed)